Time;durP1;ratioP1;P1;durP2;ratioP2;P2;SDS_P1;SDS_P2;PMS_P1;PMS_P2;Temp;Humidity;BMP_temperature;BMP_pressure;BME280_temperature;BME280_humidity;BME280_pressure;Samples;Min_cycle;Max_cycle;Signal;HPM_P1;HPM_P2
2022/04/24 00:02:12;;;;;;;4.28;2.65;;;15.20;39.70;;;;;;4982778;28;20054;-41
2022/04/24 00:04:39;;;;;;;3.10;2.15;;;15.20;39.80;;;;;;4983116;28;20088;-41
2022/04/24 00:07:08;;;;;;;4.22;2.70;;;15.20;39.80;;;;;;4985492;28;20054;-41
2022/04/24 00:09:37;;;;;;;3.25;2.50;;;15.20;39.90;;;;;;4984243;28;20050;-41
2022/04/24 00:12:06;;;;;;;3.20;2.60;;;15.20;39.90;;;;;;4981942;28;20507;-42
2022/04/24 00:14:34;;;;;;;4.05;2.88;;;15.10;39.90;;;;;;4984839;28;20069;-41
2022/04/24 00:17:01;;;;;;;3.95;2.30;;;15.10;39.90;;;;;;4985209;28;20062;-41
2022/04/24 00:19:29;;;;;;;4.25;2.42;;;15.10;40.00;;;;;;4981775;28;20046;-42
2022/04/24 00:21:57;;;;;;;2.42;2.22;;;15.10;40.00;;;;;;4981670;28;20050;-42
2022/04/24 00:24:25;;;;;;;3.33;2.45;;;15.00;40.00;;;;;;4985495;28;20055;-42
2022/04/24 00:26:54;;;;;;;3.60;2.58;;;15.00;40.10;;;;;;4981586;28;20062;-42
2022/04/24 00:29:22;;;;;;;3.92;2.33;;;15.00;40.20;;;;;;4985086;28;20051;-41
2022/04/24 00:31:49;;;;;;;3.20;2.50;;;15.00;40.20;;;;;;4983662;28;20779;-41
2022/04/24 00:34:17;;;;;;;4.13;2.33;;;15.00;40.20;;;;;;4983071;28;20062;-41
2022/04/24 00:36:45;;;;;;;4.50;2.90;;;15.00;40.30;;;;;;4984522;28;20426;-41
2022/04/24 00:39:13;;;;;;;4.05;2.85;;;14.90;40.30;;;;;;4982797;28;20054;-41
2022/04/24 00:41:45;;;;;;;3.83;2.67;;;14.90;40.30;;;;;;4982183;28;20057;-41
2022/04/24 00:44:15;;;;;;;3.45;2.75;;;14.90;40.30;;;;;;4984281;28;20058;-42
2022/04/24 00:46:43;;;;;;;3.78;2.38;;;14.80;40.30;;;;;;4984579;28;20061;-41
2022/04/24 00:49:12;;;;;;;3.78;2.60;;;14.80;40.40;;;;;;4982450;28;20410;-41
2022/04/24 00:51:40;;;;;;;3.58;2.72;;;14.80;40.40;;;;;;4979961;28;20065;-41
2022/04/24 00:54:08;;;;;;;4.13;2.63;;;14.80;40.40;;;;;;4983844;28;20862;-42
2022/04/24 00:56:37;;;;;;;3.80;3.10;;;14.80;40.50;;;;;;4984689;28;20086;-41
2022/04/24 00:59:07;;;;;;;3.15;2.50;;;14.70;40.40;;;;;;4981695;28;20057;-42
2022/04/24 01:01:37;;;;;;;3.30;2.55;;;14.70;40.50;;;;;;4983256;28;20061;-41
2022/04/24 01:04:07;;;;;;;3.65;2.80;;;14.70;40.50;;;;;;4982656;28;20502;-41
2022/04/24 01:06:37;;;;;;;4.00;3.00;;;14.70;40.50;;;;;;4984154;28;20065;-41
2022/04/24 01:09:15;;;;;;;3.83;2.80;;;14.70;40.60;;;;;;4980902;28;20058;-41
2022/04/24 01:11:43;;;;;;;4.40;3.17;;;14.60;40.60;;;;;;4982076;28;20055;-41
2022/04/24 01:14:12;;;;;;;3.28;2.60;;;14.60;40.60;;;;;;4983852;28;20055;-45
2022/04/24 01:16:41;;;;;;;4.38;3.03;;;14.60;40.60;;;;;;4984738;28;20073;-41
2022/04/24 01:19:08;;;;;;;3.95;3.15;;;14.60;40.80;;;;;;4981149;28;20077;-43
2022/04/24 01:21:39;;;;;;;4.10;3.03;;;14.60;40.80;;;;;;4981183;28;20526;-43
2022/04/24 01:24:07;;;;;;;3.88;2.72;;;14.60;40.80;;;;;;4983088;28;20081;-42
2022/04/24 01:26:35;;;;;;;3.45;2.85;;;14.60;40.80;;;;;;4984471;28;20058;-41
2022/04/24 01:29:04;;;;;;;6.30;3.20;;;14.60;40.80;;;;;;4983044;28;20054;-43
2022/04/24 01:31:32;;;;;;;5.47;3.40;;;14.60;40.90;;;;;;4982949;28;22036;-41
2022/04/24 01:34:00;;;;;;;5.80;3.33;;;14.60;40.90;;;;;;4982376;28;20054;-42
2022/04/24 01:36:28;;;;;;;4.40;3.17;;;14.50;40.90;;;;;;4983123;28;20050;-42
2022/04/24 01:38:57;;;;;;;5.13;3.28;;;14.50;40.80;;;;;;4978732;28;20414;-41
2022/04/24 01:41:24;;;;;;;4.53;3.20;;;14.50;40.90;;;;;;4982562;28;20061;-41
2022/04/24 01:43:53;;;;;;;5.05;3.20;;;14.50;40.80;;;;;;4984136;28;20065;-42
2022/04/24 01:46:21;;;;;;;4.97;3.28;;;14.50;40.80;;;;;;4982053;28;20061;-41
2022/04/24 01:48:48;;;;;;;3.88;2.92;;;14.50;40.90;;;;;;4981353;28;20624;-41
2022/04/24 01:51:16;;;;;;;3.97;2.92;;;14.50;41.00;;;;;;4981954;28;20058;-41
2022/04/24 01:53:44;;;;;;;5.75;3.28;;;14.40;40.90;;;;;;4980953;28;20418;-41
2022/04/24 01:56:14;;;;;;;3.92;2.72;;;14.40;41.00;;;;;;4983048;28;20340;-41
2022/04/24 01:58:41;;;;;;;5.18;3.47;;;14.40;41.10;;;;;;4980498;28;20050;-42
2022/04/24 02:01:09;;;;;;;3.20;2.65;;;14.40;41.10;;;;;;4982986;28;20054;-42
2022/04/24 02:03:37;;;;;;;4.32;3.00;;;14.40;41.10;;;;;;4978866;28;20057;-42
2022/04/24 02:06:05;;;;;;;4.85;3.13;;;14.40;41.20;;;;;;4981086;28;20060;-41
2022/04/24 02:08:35;;;;;;;3.70;2.95;;;14.30;41.10;;;;;;4983267;28;20054;-41
2022/04/24 02:11:02;;;;;;;4.15;3.20;;;14.30;41.10;;;;;;4983105;28;20054;-41
2022/04/24 02:13:31;;;;;;;3.83;3.10;;;14.30;41.10;;;;;;4981935;28;20065;-41
2022/04/24 02:15:59;;;;;;;6.75;3.85;;;14.30;41.30;;;;;;4982269;28;20054;-41
2022/04/24 02:18:27;;;;;;;5.68;3.63;;;14.30;41.60;;;;;;4980959;28;20247;-41
2022/04/24 02:20:54;;;;;;;5.40;3.67;;;14.30;41.60;;;;;;4982458;28;20057;-42
2022/04/24 02:23:21;;;;;;;4.53;3.35;;;14.20;41.50;;;;;;4983226;28;20513;-43
2022/04/24 02:25:49;;;;;;;5.65;3.88;;;14.20;41.50;;;;;;4982664;28;20054;-42
2022/04/24 02:28:17;;;;;;;5.55;3.50;;;14.20;41.50;;;;;;4981776;28;20057;-41
2022/04/24 02:30:46;;;;;;;5.82;3.80;;;14.20;41.70;;;;;;4982686;28;20050;-41
2022/04/24 02:33:13;;;;;;;4.82;3.88;;;14.20;41.40;;;;;;4981232;28;20108;-41
2022/04/24 02:35:41;;;;;;;3.75;3.35;;;14.20;41.50;;;;;;4982584;28;20061;-42
2022/04/24 02:38:08;;;;;;;4.68;3.33;;;14.10;41.40;;;;;;4982991;28;20513;-42
2022/04/24 02:40:35;;;;;;;5.13;3.45;;;14.10;41.60;;;;;;4983184;28;20482;-41
2022/04/24 02:43:03;;;;;;;4.88;3.55;;;14.10;41.70;;;;;;4982368;28;20514;-41
2022/04/24 02:45:30;;;;;;;4.15;3.20;;;14.10;41.80;;;;;;4982399;28;20565;-41
2022/04/24 02:47:59;;;;;;;4.63;3.38;;;14.10;42.40;;;;;;4979181;28;20057;-41
2022/04/24 02:50:26;;;;;;;4.97;3.75;;;14.00;41.90;;;;;;4982283;28;20403;-41
2022/04/24 02:52:55;;;;;;;3.78;2.67;;;14.00;41.90;;;;;;4977659;28;20050;-42
2022/04/24 02:55:24;;;;;;;4.93;3.58;;;14.00;41.80;;;;;;4982449;28;20054;-44
2022/04/24 02:57:52;;;;;;;4.20;3.35;;;14.00;41.90;;;;;;4981448;28;20057;-41
2022/04/24 03:00:22;;;;;;;5.00;3.83;;;14.00;42.10;;;;;;4982013;28;20054;-41
2022/04/24 03:02:51;;;;;;;5.38;3.92;;;13.90;41.90;;;;;;4978914;28;20058;-44
2022/04/24 03:05:21;;;;;;;4.88;3.17;;;13.90;41.90;;;;;;4982366;28;20050;-42
2022/04/24 03:07:49;;;;;;;7.03;4.03;;;13.90;42.00;;;;;;4981462;28;20061;-42
2022/04/24 03:10:17;;;;;;;4.30;3.60;;;13.90;42.20;;;;;;4981746;28;20062;-41
2022/04/24 03:12:45;;;;;;;4.63;3.95;;;13.90;42.20;;;;;;4976790;28;20058;-41
2022/04/24 03:15:14;;;;;;;4.45;3.40;;;13.80;42.10;;;;;;4979834;28;20069;-43
2022/04/24 03:17:42;;;;;;;5.65;3.85;;;13.80;42.10;;;;;;4981460;28;20060;-41
2022/04/24 03:20:11;;;;;;;4.78;4.00;;;13.80;42.10;;;;;;4981130;28;20501;-41
2022/04/24 03:22:40;;;;;;;5.82;4.10;;;13.80;42.10;;;;;;4980592;28;20066;-42
2022/04/24 03:25:10;;;;;;;5.57;3.90;;;13.80;42.10;;;;;;4982184;28;20069;-42
2022/04/24 03:27:38;;;;;;;6.10;3.88;;;13.80;42.10;;;;;;4983831;28;20490;-41
2022/04/24 03:30:07;;;;;;;5.22;3.88;;;13.80;42.20;;;;;;4985896;28;20062;-41
2022/04/24 03:32:34;;;;;;;5.50;4.13;;;13.80;42.30;;;;;;4981782;28;20050;-45
2022/04/24 03:35:03;;;;;;;6.30;4.20;;;13.80;42.30;;;;;;4982749;28;20055;-42
2022/04/24 03:37:31;;;;;;;4.82;3.78;;;13.80;42.30;;;;;;4985126;28;20418;-44
2022/04/24 03:40:00;;;;;;;5.25;4.20;;;13.80;42.30;;;;;;4985067;28;20069;-41
2022/04/24 03:42:28;;;;;;;6.53;4.10;;;13.80;42.20;;;;;;4985374;28;20050;-41
2022/04/24 03:44:55;;;;;;;6.22;4.25;;;13.80;42.30;;;;;;4985744;28;20536;-42
2022/04/24 03:47:23;;;;;;;4.38;3.90;;;13.80;42.40;;;;;;4984768;28;20058;-41
2022/04/24 03:49:50;;;;;;;6.07;3.95;;;13.80;42.30;;;;;;4984552;28;20073;-45
2022/04/24 03:52:18;;;;;;;6.43;4.28;;;13.80;42.30;;;;;;4985753;28;20055;-43
2022/04/24 03:54:46;;;;;;;5.43;3.50;;;13.80;42.40;;;;;;4985603;28;20533;-41
2022/04/24 03:57:15;;;;;;;5.30;3.80;;;13.80;42.40;;;;;;4981183;28;20058;-42
2022/04/24 03:59:42;;;;;;;5.43;3.75;;;13.80;42.40;;;;;;4982136;28;20520;-41
2022/04/24 04:02:10;;;;;;;4.45;3.63;;;13.80;42.40;;;;;;4983884;28;20054;-43
2022/04/24 04:04:38;;;;;;;5.65;3.45;;;13.80;42.50;;;;;;4983210;28;20058;-42
2022/04/24 04:07:06;;;;;;;5.53;4.30;;;13.80;42.40;;;;;;4983162;28;20062;-42
2022/04/24 04:09:34;;;;;;;6.38;3.95;;;13.80;42.40;;;;;;4984779;28;20062;-41
2022/04/24 04:12:01;;;;;;;5.60;4.10;;;13.80;42.40;;;;;;4984431;28;20051;-43
2022/04/24 04:14:30;;;;;;;4.68;3.67;;;13.80;42.40;;;;;;4981837;28;20061;-42
2022/04/24 04:16:57;;;;;;;6.20;4.05;;;13.80;42.40;;;;;;4980578;28;20062;-41
2022/04/24 04:19:25;;;;;;;5.43;3.38;;;13.80;42.50;;;;;;4983686;28;20057;-42
2022/04/24 04:21:52;;;;;;;5.90;3.97;;;13.80;42.50;;;;;;4985436;28;20506;-46
2022/04/24 04:24:20;;;;;;;7.30;3.83;;;13.80;42.60;;;;;;4985965;28;20062;-42
2022/04/24 04:26:47;;;;;;;5.70;4.10;;;13.80;42.60;;;;;;4985461;28;20069;-41
2022/04/24 04:29:15;;;;;;;6.25;3.92;;;13.80;42.80;;;;;;4985306;28;20053;-41
2022/04/24 04:31:44;;;;;;;5.80;4.55;;;13.80;42.60;;;;;;4985163;28;20057;-42
2022/04/24 04:34:11;;;;;;;6.97;4.55;;;13.80;42.40;;;;;;4983227;28;20053;-45
2022/04/24 04:36:38;;;;;;;7.30;4.57;;;13.70;42.40;;;;;;4983990;28;20065;-43
2022/04/24 04:39:06;;;;;;;6.07;4.20;;;13.70;42.60;;;;;;4984851;28;20059;-42
2022/04/24 04:41:33;;;;;;;7.05;4.60;;;13.70;42.50;;;;;;4984388;28;20517;-41
2022/04/24 04:44:01;;;;;;;6.70;4.32;;;13.70;42.50;;;;;;4985085;28;20054;-41
2022/04/24 04:46:28;;;;;;;5.93;4.35;;;13.60;42.50;;;;;;4985281;28;20054;-42
2022/04/24 04:48:57;;;;;;;6.40;4.78;;;13.60;42.60;;;;;;4983865;28;20065;-41
2022/04/24 04:51:25;;;;;;;7.97;4.95;;;13.50;42.70;;;;;;4985975;28;20061;-42
2022/04/24 04:53:54;;;;;;;6.88;4.68;;;13.50;42.90;;;;;;4985227;28;20057;-42
2022/04/24 04:56:22;;;;;;;6.07;4.72;;;13.40;43.00;;;;;;4985088;28;20101;-42
2022/04/24 04:58:50;;;;;;;6.38;4.63;;;13.40;43.10;;;;;;4984775;28;20061;-41
2022/04/24 05:01:17;;;;;;;5.60;4.18;;;13.30;43.10;;;;;;4985091;28;20054;-42
2022/04/24 05:03:45;;;;;;;5.05;4.05;;;13.40;43.20;;;;;;4982956;28;20345;-42
2022/04/24 05:06:13;;;;;;;8.10;5.60;;;13.30;43.20;;;;;;4985647;28;20062;-41
2022/04/24 05:08:41;;;;;;;6.22;4.10;;;13.30;43.30;;;;;;4984018;28;20072;-42
2022/04/24 05:11:08;;;;;;;5.80;4.70;;;13.30;43.30;;;;;;4984684;28;20061;-42
2022/04/24 05:13:36;;;;;;;5.68;4.53;;;13.30;43.50;;;;;;4982090;28;20062;-41
2022/04/24 05:16:03;;;;;;;7.55;4.70;;;13.40;43.40;;;;;;4982523;28;20065;-41
2022/04/24 05:18:31;;;;;;;8.25;4.65;;;13.40;43.60;;;;;;4980915;28;20062;-41
2022/04/24 05:20:59;;;;;;;5.78;4.57;;;13.40;43.60;;;;;;4981909;28;20062;-42
2022/04/24 05:23:28;;;;;;;6.57;5.15;;;13.40;43.40;;;;;;4980615;28;20486;-41
2022/04/24 05:25:55;;;;;;;8.38;4.40;;;13.50;43.50;;;;;;4980658;28;20069;-42
2022/04/24 05:28:23;;;;;;;6.75;4.97;;;13.50;44.30;;;;;;4981367;28;20062;-42
2022/04/24 05:30:50;;;;;;;6.72;4.53;;;13.50;44.10;;;;;;4983443;28;20073;-42
2022/04/24 05:33:18;;;;;;;6.00;4.63;;;13.50;44.10;;;;;;4982577;28;20054;-43
2022/04/24 05:35:46;;;;;;;8.63;5.30;;;13.50;44.10;;;;;;4983727;28;20050;-42
2022/04/24 05:38:13;;;;;;;5.88;4.63;;;13.50;44.20;;;;;;4983344;28;20058;-43
2022/04/24 05:40:42;;;;;;;6.05;4.40;;;13.50;44.10;;;;;;4983375;28;20373;-41
2022/04/24 05:43:09;;;;;;;5.05;3.95;;;13.50;44.10;;;;;;4982861;28;20061;-41
2022/04/24 05:45:37;;;;;;;12.48;8.35;;;13.50;44.10;;;;;;4983645;28;20050;-44
2022/04/24 05:48:05;;;;;;;7.70;5.53;;;13.60;44.20;;;;;;4981553;28;20483;-42
2022/04/24 05:50:33;;;;;;;7.10;5.00;;;13.60;44.40;;;;;;4979924;28;20046;-41
2022/04/24 05:53:02;;;;;;;7.28;4.22;;;13.70;44.40;;;;;;4981194;28;20059;-41
2022/04/24 05:55:29;;;;;;;6.50;4.75;;;13.70;44.20;;;;;;4981215;28;20058;-41
2022/04/24 05:57:58;;;;;;;5.57;4.60;;;13.80;44.20;;;;;;4982472;28;20490;-41
2022/04/24 06:00:26;;;;;;;4.50;4.10;;;13.80;44.10;;;;;;4981742;28;20089;-41
2022/04/24 06:02:53;;;;;;;6.75;4.82;;;13.90;44.30;;;;;;4980552;28;20419;-41
2022/04/24 06:05:21;;;;;;;6.15;4.50;;;13.90;44.90;;;;;;4982149;28;20062;-42
2022/04/24 06:07:49;;;;;;;5.55;4.20;;;13.90;45.10;;;;;;4980010;28;20058;-42
2022/04/24 06:10:17;;;;;;;4.40;4.00;;;13.90;45.80;;;;;;4981802;28;20046;-41
2022/04/24 06:12:46;;;;;;;5.50;4.18;;;13.90;45.30;;;;;;4980320;28;20406;-42
2022/04/24 06:15:16;;;;;;;7.22;4.55;;;14.00;45.30;;;;;;4980773;28;20450;-42
2022/04/24 06:17:46;;;;;;;6.85;4.57;;;14.00;45.30;;;;;;4980445;28;20050;-41
2022/04/24 06:20:15;;;;;;;6.25;4.88;;;14.00;44.90;;;;;;4976296;28;20570;-41
2022/04/24 06:22:43;;;;;;;6.75;4.80;;;14.10;45.00;;;;;;4976849;28;20042;-41
2022/04/24 06:25:15;;;;;;;5.93;4.40;;;14.10;45.00;;;;;;4979349;28;20065;-41
2022/04/24 06:27:42;;;;;;;7.53;4.90;;;14.20;44.90;;;;;;4976605;28;20050;-40
2022/04/24 06:30:11;;;;;;;7.45;5.25;;;14.20;44.90;;;;;;4980172;28;20061;-41
2022/04/24 06:32:41;;;;;;;5.63;4.72;;;14.30;45.40;;;;;;4979462;28;20888;-41
2022/04/24 06:35:10;;;;;;;5.05;4.35;;;14.30;45.80;;;;;;4978407;28;20061;-41
2022/04/24 06:37:38;;;;;;;6.50;4.35;;;14.30;45.50;;;;;;4978725;28;20046;-42
2022/04/24 06:40:06;;;;;;;8.23;5.03;;;14.40;45.80;;;;;;4979121;28;20054;-41
2022/04/24 06:42:34;;;;;;;5.53;4.78;;;14.40;46.00;;;;;;4974675;28;20406;-43
2022/04/24 06:45:02;;;;;;;6.45;4.78;;;14.40;46.30;;;;;;4979192;28;20065;-42
2022/04/24 06:47:29;;;;;;;6.72;5.13;;;14.30;45.30;;;;;;4977596;28;20053;-42
2022/04/24 06:49:58;;;;;;;7.75;5.43;;;14.30;45.10;;;;;;4981025;28;20054;-41
2022/04/24 06:52:25;;;;;;;10.13;5.57;;;14.20;45.20;;;;;;4980034;28;20065;-45
2022/04/24 06:54:54;;;;;;;8.82;5.25;;;14.20;45.50;;;;;;4978153;28;20410;-42
2022/04/24 06:57:21;;;;;;;6.20;4.85;;;14.10;45.80;;;;;;4979880;28;20054;-41
2022/04/24 06:59:48;;;;;;;7.95;4.68;;;14.10;45.70;;;;;;4978864;28;20054;-41
2022/04/24 07:02:16;;;;;;;8.13;6.45;;;14.10;45.80;;;;;;4979648;28;20065;-42
2022/04/24 07:04:43;;;;;;;7.88;5.10;;;14.10;45.90;;;;;;4979079;28;20054;-42
2022/04/24 07:07:12;;;;;;;6.13;5.25;;;14.10;46.10;;;;;;4979526;28;20058;-42
2022/04/24 07:09:39;;;;;;;7.10;5.15;;;14.20;46.40;;;;;;4979947;28;20046;-41
2022/04/24 07:12:08;;;;;;;6.75;5.22;;;14.20;46.80;;;;;;4979343;28;20050;-41
2022/04/24 07:14:36;;;;;;;8.55;5.03;;;14.30;46.10;;;;;;4975125;28;20054;-45
2022/04/24 07:17:03;;;;;;;7.07;5.68;;;14.40;46.20;;;;;;4979336;28;20054;-41
2022/04/24 07:19:31;;;;;;;9.43;6.03;;;14.50;46.10;;;;;;4973783;28;20050;-42
2022/04/24 07:21:58;;;;;;;7.45;5.63;;;14.60;46.00;;;;;;4974919;28;20073;-42
2022/04/24 07:24:27;;;;;;;8.70;6.00;;;14.60;46.00;;;;;;4981541;28;20077;-42
2022/04/24 07:26:55;;;;;;;10.18;6.00;;;14.70;45.70;;;;;;4980921;28;20054;-44
2022/04/24 07:29:22;;;;;;;7.35;5.78;;;14.80;45.80;;;;;;4979086;28;20051;-41
2022/04/24 07:31:50;;;;;;;9.98;6.25;;;14.90;45.90;;;;;;4980716;28;20057;-42
2022/04/24 07:34:18;;;;;;;7.65;6.05;;;14.90;45.70;;;;;;4980078;28;20046;-41
2022/04/24 07:36:45;;;;;;;9.13;6.53;;;15.00;45.70;;;;;;4981469;28;20065;-41
2022/04/24 07:39:14;;;;;;;14.25;6.18;;;15.00;45.70;;;;;;4981212;28;20069;-42
2022/04/24 07:41:42;;;;;;;8.65;6.00;;;15.10;45.90;;;;;;4978711;28;20077;-42
2022/04/24 07:44:10;;;;;;;8.23;5.70;;;15.10;45.90;;;;;;4982251;28;20062;-41
2022/04/24 07:46:37;;;;;;;8.43;6.30;;;15.20;45.40;;;;;;4981490;28;20054;-41
2022/04/24 07:49:05;;;;;;;8.43;6.30;;;15.30;45.60;;;;;;4980234;28;20058;-44
2022/04/24 07:51:32;;;;;;;7.35;5.57;;;15.40;45.50;;;;;;4980633;28;20058;-42
2022/04/24 07:53:59;;;;;;;9.25;6.13;;;15.50;45.30;;;;;;4981204;28;20053;-42
2022/04/24 07:56:27;;;;;;;10.38;6.40;;;15.60;44.80;;;;;;4981611;28;20058;-41
2022/04/24 07:58:56;;;;;;;9.65;6.07;;;15.70;44.90;;;;;;4982011;28;20051;-42
2022/04/24 08:01:23;;;;;;;7.75;5.78;;;15.80;45.00;;;;;;4977630;28;20418;-41
2022/04/24 08:03:50;;;;;;;9.20;5.55;;;15.80;44.90;;;;;;4980340;28;20054;-43
2022/04/24 08:06:18;;;;;;;8.93;5.80;;;15.90;44.90;;;;;;4980838;28;20061;-42
2022/04/24 08:08:45;;;;;;;7.35;5.90;;;15.80;43.90;;;;;;4981944;28;20055;-42
2022/04/24 08:11:13;;;;;;;8.50;6.28;;;15.80;43.90;;;;;;4980747;28;20050;-44
2022/04/24 08:13:40;;;;;;;9.57;6.22;;;15.80;43.70;;;;;;4981041;28;20042;-42
2022/04/24 08:16:09;;;;;;;7.50;6.13;;;15.80;43.90;;;;;;4985621;28;20054;-42
2022/04/24 08:18:36;;;;;;;9.02;6.70;;;15.80;43.90;;;;;;4983376;28;20062;-41
2022/04/24 08:21:04;;;;;;;8.13;5.78;;;15.80;43.60;;;;;;4983109;28;20058;-46
2022/04/24 08:23:31;;;;;;;8.40;6.50;;;15.80;43.50;;;;;;4982439;28;20047;-43
2022/04/24 08:25:59;;;;;;;8.60;6.45;;;15.90;42.90;;;;;;4985321;28;20058;-42
2022/04/24 08:28:26;;;;;;;10.32;6.43;;;15.90;42.90;;;;;;4983723;28;20046;-42
2022/04/24 08:30:54;;;;;;;9.25;6.30;;;15.90;43.60;;;;;;4985450;28;20076;-42
2022/04/24 08:33:23;;;;;;;9.60;6.28;;;16.00;43.70;;;;;;4981878;28;20050;-41
2022/04/24 08:35:50;;;;;;;9.50;6.90;;;16.00;43.10;;;;;;4985449;28;20062;-41
2022/04/24 08:38:18;;;;;;;8.27;6.28;;;16.00;43.60;;;;;;4985078;28;20065;-41
2022/04/24 08:40:46;;;;;;;12.98;6.00;;;16.10;43.60;;;;;;4983545;28;20053;-42
2022/04/24 08:43:14;;;;;;;9.43;6.32;;;16.10;43.50;;;;;;4982929;28;20590;-41
2022/04/24 08:45:42;;;;;;;8.82;6.47;;;16.20;43.10;;;;;;4984924;28;20528;-42
2022/04/24 08:48:10;;;;;;;10.50;5.65;;;16.30;43.20;;;;;;4983004;28;20073;-41
2022/04/24 08:50:40;;;;;;;8.25;5.97;;;16.40;43.10;;;;;;4983897;28;20061;-41
2022/04/24 08:53:09;;;;;;;9.38;6.43;;;16.50;43.20;;;;;;4982275;28;20061;-41
2022/04/24 08:55:37;;;;;;;6.97;5.70;;;16.60;42.40;;;;;;4984521;28;20054;-41
2022/04/24 08:58:05;;;;;;;10.52;5.78;;;16.70;42.50;;;;;;4982077;28;20552;-41
2022/04/24 09:00:33;;;;;;;9.30;5.90;;;16.80;42.70;;;;;;4983631;28;20406;-44
2022/04/24 09:03:01;;;;;;;8.68;6.07;;;17.00;42.20;;;;;;4980500;28;20061;-43
2022/04/24 09:05:30;;;;;;;9.35;6.88;;;17.10;42.20;;;;;;4984246;28;20054;-42
2022/04/24 09:08:08;;;;;;;7.55;5.85;;;17.20;42.60;;;;;;4984592;28;20422;-41
2022/04/24 09:10:51;;;;;;;16.08;7.30;;;17.20;42.90;;;;;;4984693;28;20093;-41
2022/04/24 09:13:32;;;;;;;7.30;5.85;;;17.30;42.40;;;;;;4983344;28;20062;-41
2022/04/24 09:16:02;;;;;;;7.40;5.97;;;17.30;42.50;;;;;;4984012;28;20050;-41
2022/04/24 09:18:39;;;;;;;9.93;5.45;;;17.30;42.30;;;;;;4981320;28;20050;-42
2022/04/24 09:21:07;;;;;;;10.63;5.63;;;17.40;42.30;;;;;;4982786;28;20058;-42
2022/04/24 09:23:37;;;;;;;11.10;5.88;;;17.40;42.30;;;;;;4981583;28;20046;-44
2022/04/24 09:26:04;;;;;;;6.82;5.40;;;17.40;42.40;;;;;;4984156;28;20088;-41
2022/04/24 09:28:39;;;;;;;6.65;5.45;;;17.50;43.20;;;;;;4982777;28;20062;-43
2022/04/24 09:31:07;;;;;;;8.02;6.70;;;17.50;42.40;;;;;;4983671;28;20061;-41
2022/04/24 09:33:39;;;;;;;8.00;6.00;;;17.60;42.40;;;;;;4980637;28;20061;-41
2022/04/24 09:36:07;;;;;;;9.05;5.60;;;17.70;42.20;;;;;;4983728;28;20498;-41
2022/04/24 09:38:42;;;;;;;6.97;5.57;;;17.80;42.50;;;;;;4983905;28;20069;-41
2022/04/24 09:41:16;;;;;;;8.30;6.10;;;17.80;42.10;;;;;;4982274;28;20510;-42
2022/04/24 09:43:43;;;;;;;;;;;17.90;42.20;;;;;;4982077;28;20054;-41
2022/04/24 09:46:11;;;;;;;7.82;6.00;;;18.00;42.40;;;;;;4982996;28;19925;-41
2022/04/24 09:48:38;;;;;;;7.30;5.32;;;18.10;41.70;;;;;;4981844;28;20069;-41
2022/04/24 09:51:07;;;;;;;11.75;5.43;;;18.20;41.70;;;;;;4984226;28;20050;-42
2022/04/24 09:53:42;;;;;;;6.03;4.70;;;18.30;41.70;;;;;;4981061;28;20046;-42
2022/04/24 09:56:11;;;;;;;7.55;5.82;;;18.30;41.50;;;;;;4983302;28;20050;-42
2022/04/24 09:58:39;;;;;;;5.97;4.70;;;18.30;41.30;;;;;;4983211;28;20054;-42
2022/04/24 10:01:08;;;;;;;6.90;5.10;;;18.40;41.00;;;;;;4981569;28;20058;-43
2022/04/24 10:03:37;;;;;;;6.57;4.72;;;18.40;40.50;;;;;;4980343;28;20061;-42
2022/04/24 10:06:06;;;;;;;6.10;4.63;;;18.40;40.20;;;;;;4983450;28;20054;-42
2022/04/24 10:08:34;;;;;;;6.88;4.47;;;18.50;39.90;;;;;;4982699;28;20061;-41
2022/04/24 10:11:05;;;;;;;7.00;4.70;;;18.40;39.40;;;;;;4982914;28;20058;-44
2022/04/24 10:13:35;;;;;;;6.35;4.65;;;18.40;39.10;;;;;;4980067;28;20054;-42
2022/04/24 10:16:15;;;;;;;6.32;4.72;;;18.40;39.40;;;;;;4982385;28;20058;-42
2022/04/24 10:18:54;;;;;;;6.10;4.47;;;18.40;38.90;;;;;;4981886;28;20629;-42
2022/04/24 10:21:48;;;;;;;4.93;3.75;;;18.40;38.90;;;;;;4980581;28;20413;-42
2022/04/24 10:24:16;;;;;;;6.00;4.18;;;18.40;38.40;;;;;;4978828;28;20046;-41
2022/04/24 10:26:54;;;;;;;5.80;4.28;;;18.30;38.50;;;;;;4982798;28;20065;-42
2022/04/24 10:29:22;;;;;;;5.22;3.88;;;18.30;38.10;;;;;;4981646;28;20486;-42
2022/04/24 10:31:50;;;;;;;5.15;3.92;;;18.30;38.20;;;;;;4982300;28;20073;-41
2022/04/24 10:34:19;;;;;;;5.93;4.18;;;18.30;38.10;;;;;;4979945;28;20058;-42
2022/04/24 10:36:57;;;;;;;5.05;3.78;;;18.30;38.10;;;;;;4983021;28;20058;-43
2022/04/24 10:39:27;;;;;;;5.00;3.63;;;18.30;38.00;;;;;;4982147;28;20058;-41
2022/04/24 10:42:00;;;;;;;5.93;4.13;;;18.30;38.30;;;;;;4972570;28;20054;-42
2022/04/24 10:44:28;;;;;;;4.78;3.88;;;18.30;38.30;;;;;;4975590;28;20054;-43
2022/04/24 10:46:57;;;;;;;4.82;3.85;;;18.30;38.50;;;;;;4980143;28;20070;-42
2022/04/24 10:49:33;;;;;;;5.82;4.30;;;18.30;38.40;;;;;;4979966;28;20417;-42
2022/04/24 10:55:25;;;;;;;5.45;4.25;;;18.40;38.10;;;;;;4984822;28;20049;-45
2022/04/24 10:58:00;;;;;;;6.97;4.10;;;18.50;38.30;;;;;;4979675;28;20050;-44
2022/04/24 11:00:51;;;;;;;5.60;3.92;;;18.50;37.90;;;;;;4989427;28;20514;-44
2022/04/24 11:03:19;;;;;;;5.50;4.15;;;18.60;38.00;;;;;;4972826;28;21449;-44
2022/04/24 11:05:49;;;;;;;4.82;3.88;;;18.60;37.80;;;;;;4980864;28;20054;-45
2022/04/24 11:08:20;;;;;;;6.28;4.18;;;18.70;38.00;;;;;;4979159;28;20058;-44
2022/04/24 11:10:50;;;;;;;7.13;4.50;;;18.70;38.00;;;;;;4977725;28;20058;-45
2022/04/24 11:13:20;;;;;;;6.78;4.18;;;18.80;38.00;;;;;;4978567;28;20410;-45
2022/04/24 11:15:50;;;;;;;6.30;4.22;;;18.90;38.10;;;;;;4980970;28;20073;-44
2022/04/24 11:18:19;;;;;;;5.25;4.18;;;18.90;37.70;;;;;;4979554;28;20560;-44
2022/04/24 11:20:55;;;;;;;5.05;4.00;;;19.00;37.80;;;;;;4979981;28;20054;-44
2022/04/24 11:23:26;;;;;;;5.32;3.88;;;19.10;37.60;;;;;;4982148;28;20069;-44
2022/04/24 11:25:55;;;;;;;9.80;4.55;;;19.10;37.60;;;;;;4981342;28;20051;-45
2022/04/24 11:28:34;;;;;;;4.93;4.25;;;19.20;37.50;;;;;;4979901;28;20062;-44
2022/04/24 11:31:09;;;;;;;6.03;4.38;;;19.30;37.40;;;;;;4978812;28;20494;-44
2022/04/24 11:33:36;;;;;;;6.13;4.65;;;19.30;37.20;;;;;;4977800;28;20054;-44
2022/04/24 11:36:05;;;;;;;5.97;4.80;;;19.30;37.50;;;;;;4980191;28;20057;-45
2022/04/24 11:38:33;;;;;;;6.93;5.05;;;19.40;37.10;;;;;;4980276;28;20058;-43
2022/04/24 11:41:03;;;;;;;8.68;4.20;;;19.40;37.00;;;;;;4979451;28;20054;-44
2022/04/24 11:43:32;;;;;;;5.47;4.05;;;19.30;36.90;;;;;;4978957;28;20137;-43
2022/04/24 11:51:32;;;;;;;6.50;3.53;;;19.40;36.60;;;;;;4987760;28;20075;-45
2022/04/24 11:53:59;;;;;;;4.88;3.83;;;19.30;36.40;;;;;;4984531;28;20054;-46
2022/04/24 11:56:28;;;;;;;5.47;3.90;;;19.30;36.40;;;;;;4983750;28;20050;-44
2022/04/24 11:59:12;;;;;;;5.50;3.63;;;19.20;36.50;;;;;;4984740;28;20431;-44
2022/04/24 12:01:39;;;;;;;4.20;3.38;;;19.20;36.50;;;;;;4983560;28;20054;-44
2022/04/24 12:04:07;;;;;;;5.10;4.00;;;19.30;36.80;;;;;;4983472;28;20074;-44
2022/04/24 12:06:34;;;;;;;4.88;3.90;;;19.20;36.70;;;;;;4984795;28;20061;-44
2022/04/24 12:09:08;;;;;;;6.15;3.88;;;19.20;36.50;;;;;;4984207;28;20058;-43
2022/04/24 12:11:36;;;;;;;4.90;3.40;;;19.30;36.90;;;;;;4983402;28;20050;-44
2022/04/24 12:14:08;;;;;;;7.75;4.25;;;19.30;37.20;;;;;;4983594;28;20062;-44
2022/04/24 12:16:36;;;;;;;6.35;3.67;;;19.40;37.20;;;;;;4980451;28;20065;-44
2022/04/24 12:19:04;;;;;;;5.57;3.58;;;19.50;37.00;;;;;;4981212;28;20054;-44
2022/04/24 12:21:33;;;;;;;4.85;4.03;;;19.50;37.10;;;;;;4978858;28;20066;-45
2022/04/24 12:24:01;;;;;;;3.95;3.55;;;19.60;36.60;;;;;;4980484;28;20525;-47
2022/04/24 12:26:28;;;;;;;4.28;3.53;;;19.70;37.30;;;;;;4978450;28;20414;-44
2022/04/24 12:29:06;;;;;;;4.43;3.38;;;19.80;36.50;;;;;;4981709;28;20050;-44
2022/04/24 12:31:35;;;;;;;3.70;3.00;;;20.00;36.00;;;;;;4978608;28;20065;-44
2022/04/24 12:34:02;;;;;;;4.20;2.88;;;20.10;36.30;;;;;;4978484;28;20058;-45
2022/04/24 12:36:30;;;;;;;4.65;3.78;;;20.20;36.20;;;;;;4984757;28;20402;-44
2022/04/24 12:38:59;;;;;;;4.57;3.22;;;20.40;36.30;;;;;;4983521;28;20062;-44
2022/04/24 12:41:30;;;;;;;3.72;3.28;;;20.50;34.50;;;;;;4981237;28;20056;-44
2022/04/24 12:43:59;;;;;;;3.80;3.13;;;20.50;34.60;;;;;;4982328;28;20054;-43
2022/04/24 12:46:28;;;;;;;4.07;3.10;;;20.60;32.60;;;;;;4983171;28;20054;-44
2022/04/24 12:48:57;;;;;;;3.60;2.70;;;20.60;33.20;;;;;;4983100;28;20050;-47
2022/04/24 12:51:26;;;;;;;4.32;3.28;;;20.60;33.40;;;;;;4985084;28;20042;-45
2022/04/24 12:53:55;;;;;;;4.70;3.25;;;20.60;33.00;;;;;;4983388;28;20073;-46
2022/04/24 12:56:23;;;;;;;4.28;2.85;;;20.60;33.70;;;;;;4984557;28;20058;-44
2022/04/24 12:58:50;;;;;;;6.55;3.20;;;20.60;33.20;;;;;;4983826;28;20046;-44
2022/04/24 13:01:18;;;;;;;5.60;3.75;;;20.60;32.90;;;;;;4984945;28;20065;-44
2022/04/24 13:03:47;;;;;;;4.30;3.47;;;20.50;31.80;;;;;;4979491;28;20054;-44